createdAt,value
2018-11-13T00:00:23.864Z,99.90
2018-11-13T00:02:53.715Z,99.90
2018-11-13T00:05:23.597Z,99.90
2018-11-13T00:07:52.789Z,99.90
2018-11-13T00:10:22.028Z,99.90
2018-11-13T00:12:51.162Z,99.90
2018-11-13T00:15:20.371Z,99.90
2018-11-13T00:17:49.536Z,99.90
2018-11-13T00:20:19.424Z,99.90
2018-11-13T00:22:48.620Z,99.90
2018-11-13T00:25:18.893Z,99.90
2018-11-13T00:27:48.109Z,99.90
2018-11-13T00:30:19.814Z,99.90
2018-11-13T00:32:49.470Z,99.90
2018-11-13T00:35:19.334Z,99.90
2018-11-13T00:37:49.303Z,99.90
2018-11-13T00:40:19.144Z,99.90
2018-11-13T00:42:48.718Z,99.90
2018-11-13T00:45:18.008Z,99.90
2018-11-13T00:47:47.129Z,99.90
2018-11-13T00:50:17.581Z,99.90
2018-11-13T00:52:47.212Z,99.90
2018-11-13T00:55:16.751Z,99.90
2018-11-13T00:57:46.218Z,99.90
2018-11-13T01:00:17.242Z,99.90
2018-11-13T01:02:46.570Z,99.90
2018-11-13T01:05:17.123Z,99.90
2018-11-13T01:07:47.330Z,99.90
2018-11-13T01:10:17.571Z,99.90
2018-11-13T01:12:47.287Z,99.90
2018-11-13T01:15:17.746Z,99.90
2018-11-13T01:17:47.527Z,99.90
2018-11-13T01:20:17.444Z,99.90
2018-11-13T01:22:46.644Z,99.90
2018-11-13T01:25:16.636Z,99.90
2018-11-13T01:27:46.129Z,99.90
2018-11-13T01:30:16.082Z,99.90
2018-11-13T01:32:45.828Z,99.90
2018-11-13T01:35:16.145Z,99.90
2018-11-13T01:37:45.382Z,99.90
2018-11-13T01:40:15.998Z,99.90
2018-11-13T01:42:45.416Z,99.90
2018-11-13T01:45:16.019Z,99.90
2018-11-13T01:47:45.219Z,99.90
2018-11-13T01:50:14.680Z,99.90
2018-11-13T01:52:43.857Z,99.90
2018-11-13T01:55:14.344Z,99.90
2018-11-13T01:57:43.545Z,99.90
2018-11-13T02:00:20.848Z,99.90
2018-11-13T02:02:51.212Z,99.90
2018-11-13T02:05:21.590Z,99.90
2018-11-13T02:07:51.311Z,99.90
2018-11-13T02:10:20.860Z,99.90
2018-11-13T02:12:50.511Z,99.90
2018-11-13T02:15:20.558Z,99.90
2018-11-13T02:17:49.804Z,99.90
2018-11-13T02:20:20.353Z,99.90
2018-11-13T02:22:49.619Z,99.90
2018-11-13T02:25:19.790Z,99.90
2018-11-13T02:27:49.348Z,99.90
2018-11-13T02:30:19.859Z,99.90
2018-11-13T02:32:49.508Z,99.90
2018-11-13T02:35:18.976Z,99.90
2018-11-13T02:37:48.219Z,99.90
2018-11-13T02:40:17.426Z,99.90
2018-11-13T02:42:46.647Z,99.90
2018-11-13T02:45:18.485Z,99.90
2018-11-13T02:47:47.726Z,99.90
2018-11-13T02:50:18.164Z,99.90
2018-11-13T02:52:47.378Z,99.90
2018-11-13T02:55:16.664Z,99.90
2018-11-13T02:57:46.438Z,99.90
2018-11-13T03:00:20.517Z,99.90
2018-11-13T03:02:49.925Z,99.90
2018-11-13T03:05:20.328Z,99.90
2018-11-13T03:07:49.616Z,99.90
2018-11-13T03:10:20.183Z,99.90
2018-11-13T03:12:49.389Z,99.90
2018-11-13T03:15:19.916Z,99.90
2018-11-13T03:17:49.114Z,99.90
2018-11-13T03:20:19.444Z,99.90
2018-11-13T03:22:49.198Z,99.90
2018-11-13T03:25:19.687Z,99.90
2018-11-13T03:27:48.879Z,99.90
2018-11-13T03:30:20.538Z,99.90
2018-11-13T03:32:54.320Z,99.90
2018-11-13T03:35:23.730Z,99.90
2018-11-13T03:37:53.072Z,99.90
2018-11-13T03:40:22.345Z,99.90
2018-11-13T03:42:51.793Z,99.90
2018-11-13T03:45:21.378Z,99.90
2018-11-13T03:47:50.524Z,99.90
2018-11-13T03:50:20.897Z,99.90
2018-11-13T03:52:50.065Z,99.90
2018-11-13T03:55:19.996Z,99.90
2018-11-13T03:57:49.862Z,99.90
2018-11-13T04:00:20.304Z,99.90
2018-11-13T04:02:49.593Z,99.90
2018-11-13T04:05:19.824Z,99.90
2018-11-13T04:07:53.152Z,99.90
2018-11-13T04:10:22.819Z,99.90
2018-11-13T04:12:52.014Z,99.90
2018-11-13T04:15:23.364Z,99.90
2018-11-13T04:17:52.552Z,99.90
2018-11-13T04:20:22.535Z,99.90
2018-11-13T04:22:51.704Z,99.90
2018-11-13T04:25:20.898Z,99.90
2018-11-13T04:27:50.078Z,99.90
2018-11-13T04:30:19.697Z,99.90
2018-11-13T04:32:48.870Z,99.90
2018-11-13T04:35:18.702Z,99.90
2018-11-13T04:37:47.919Z,99.90
2018-11-13T04:40:18.962Z,99.90
2018-11-13T04:42:50.198Z,99.90
2018-11-13T04:45:20.648Z,99.90
2018-11-13T04:47:50.330Z,99.90
2018-11-13T04:50:20.653Z,99.90
2018-11-13T04:52:49.903Z,99.90
2018-11-13T04:55:19.722Z,99.90
2018-11-13T04:57:49.867Z,99.90
2018-11-13T05:00:20.362Z,99.90
2018-11-13T05:02:49.601Z,99.90
2018-11-13T05:05:19.544Z,99.90
2018-11-13T05:07:49.896Z,99.90
2018-11-13T05:10:19.156Z,99.90
2018-11-13T05:12:48.900Z,99.90
2018-11-13T05:15:18.159Z,99.90
2018-11-13T05:17:47.827Z,99.90
2018-11-13T05:20:17.770Z,99.90
2018-11-13T05:22:46.985Z,99.90
2018-11-13T05:25:17.401Z,99.90
2018-11-13T05:27:46.566Z,99.90
2018-11-13T05:30:17.095Z,99.90
2018-11-13T05:32:46.196Z,99.90
2018-11-13T05:35:16.518Z,99.90
2018-11-13T05:37:46.199Z,99.90
2018-11-13T05:40:17.157Z,99.90
2018-11-13T05:42:46.350Z,99.90
2018-11-13T05:45:16.907Z,99.90
2018-11-13T05:47:46.094Z,99.90
2018-11-13T05:50:16.267Z,99.90
2018-11-13T05:52:46.543Z,99.90
2018-11-13T05:55:16.189Z,99.90
2018-11-13T05:57:45.386Z,99.90
2018-11-13T06:00:17.755Z,99.90
2018-11-13T06:02:46.935Z,99.90
2018-11-13T06:05:16.170Z,99.90
2018-11-13T06:07:45.362Z,99.90
2018-11-13T06:10:14.664Z,99.90
2018-11-13T06:12:43.879Z,99.90
2018-11-13T06:15:13.025Z,99.90
2018-11-13T06:17:42.222Z,99.90
2018-11-13T06:20:12.849Z,99.90
2018-11-13T06:22:42.129Z,99.90
2018-11-13T06:25:13.079Z,99.90
2018-11-13T06:27:43.480Z,99.90
2018-11-13T06:30:18.314Z,99.90
2018-11-13T06:32:48.048Z,99.90
2018-11-13T06:35:17.196Z,99.90
2018-11-13T06:37:46.458Z,99.90
2018-11-13T06:40:15.638Z,99.90
2018-11-13T06:42:44.871Z,99.90
2018-11-13T06:45:18.247Z,99.90
2018-11-13T06:47:47.911Z,99.90
2018-11-13T06:50:17.062Z,99.90
2018-11-13T06:52:47.053Z,99.90
2018-11-13T06:55:24.555Z,99.90
2018-11-13T06:57:53.795Z,99.90
2018-11-13T07:00:22.989Z,99.90
2018-11-13T07:02:52.244Z,99.90
2018-11-13T07:05:21.397Z,99.90
2018-11-13T07:07:50.498Z,99.90
2018-11-13T07:10:20.958Z,99.90
2018-11-13T07:12:50.982Z,99.90
2018-11-13T07:15:21.456Z,99.90
2018-11-13T07:17:51.916Z,99.90
2018-11-13T07:20:22.367Z,99.90
2018-11-13T07:22:51.611Z,99.90
2018-11-13T07:25:20.970Z,99.90
2018-11-13T07:27:50.253Z,99.90
2018-11-13T07:30:20.206Z,99.90
2018-11-13T07:32:49.405Z,99.90
2018-11-13T07:35:19.520Z,99.90
2018-11-13T07:37:51.367Z,99.90
2018-11-13T07:40:20.804Z,99.90
2018-11-13T07:42:49.989Z,99.90
2018-11-13T07:45:19.472Z,99.90
2018-11-13T07:47:49.011Z,99.90
2018-11-13T07:50:18.168Z,99.90
2018-11-13T07:52:47.441Z,99.90
2018-11-13T07:55:17.282Z,99.90
2018-11-13T07:57:46.530Z,99.90
2018-11-13T08:00:17.793Z,99.90
2018-11-13T08:02:49.107Z,99.90
2018-11-13T08:05:18.220Z,99.90
2018-11-13T08:07:47.432Z,99.90
2018-11-13T08:10:16.733Z,99.90
2018-11-13T08:12:46.223Z,99.90
2018-11-13T08:15:16.867Z,99.90
2018-11-13T08:17:46.177Z,99.90
2018-11-13T08:20:16.356Z,99.90
2018-11-13T08:22:45.739Z,99.90
2018-11-13T08:25:15.060Z,99.90
2018-11-13T08:27:44.343Z,99.90
2018-11-13T08:30:16.311Z,99.90
2018-11-13T08:32:46.224Z,99.90
2018-11-13T08:35:15.764Z,99.90
2018-11-13T08:37:44.956Z,99.90
2018-11-13T08:40:15.423Z,99.90
2018-11-13T08:42:45.403Z,99.90
2018-11-13T08:45:15.156Z,99.90
2018-11-13T08:47:44.357Z,99.90
2018-11-13T08:50:14.297Z,99.90
2018-11-13T08:52:44.279Z,99.90
2018-11-13T08:55:22.452Z,99.90
2018-11-13T08:57:51.787Z,99.90
2018-11-13T09:00:20.895Z,99.90
2018-11-13T09:02:50.099Z,99.90
2018-11-13T09:05:19.321Z,99.90
2018-11-13T09:07:48.450Z,99.90
2018-11-13T09:10:18.774Z,99.90
2018-11-13T09:12:48.314Z,99.90
2018-11-13T09:15:18.719Z,99.90
2018-11-13T09:17:47.847Z,99.90
2018-11-13T09:20:18.332Z,99.90
2018-11-13T09:22:47.492Z,99.90
2018-11-13T09:25:18.092Z,99.90
2018-11-13T09:27:47.292Z,99.90
2018-11-13T09:30:19.091Z,99.90
2018-11-13T09:32:48.551Z,99.90
2018-11-13T09:35:18.413Z,99.90
2018-11-13T09:37:47.668Z,99.90
2018-11-13T09:40:18.321Z,99.90
2018-11-13T09:42:48.669Z,99.90
2018-11-13T09:45:18.206Z,99.90
2018-11-13T09:47:47.462Z,99.90
2018-11-13T09:50:17.731Z,99.90
2018-11-13T09:52:48.132Z,99.90
2018-11-13T09:55:18.935Z,99.90
2018-11-13T09:57:48.280Z,99.90
2018-11-13T10:00:19.705Z,99.90
2018-11-13T10:02:50.653Z,99.90
2018-11-13T10:05:20.460Z,99.90
2018-11-13T10:07:50.113Z,99.90
2018-11-13T10:10:19.319Z,99.90
2018-11-13T10:12:48.897Z,99.90
2018-11-13T10:15:22.518Z,99.90
2018-11-13T10:17:51.878Z,99.90
2018-11-13T10:20:20.952Z,99.90
2018-11-13T10:22:51.496Z,99.90
2018-11-13T10:25:20.769Z,99.90
2018-11-13T10:27:56.277Z,99.90
2018-11-13T10:30:26.056Z,99.90
2018-11-13T10:32:55.532Z,99.90
2018-11-13T10:35:25.743Z,99.90
2018-11-13T10:37:54.904Z,99.90
2018-11-13T10:40:24.437Z,99.90
2018-11-13T10:42:53.932Z,99.90
2018-11-13T10:45:25.305Z,99.90
2018-11-13T10:47:54.567Z,99.90
2018-11-13T10:50:24.931Z,99.90
2018-11-13T10:52:54.123Z,99.90
2018-11-13T10:55:23.297Z,99.90
2018-11-13T10:57:52.472Z,99.90
2018-11-13T11:00:27.004Z,99.90
2018-11-13T11:03:01.309Z,99.90
2018-11-13T11:08:26.271Z,99.90
2018-11-13T11:10:55.485Z,99.90
2018-11-13T11:13:24.743Z,99.70
2018-11-13T11:15:54.709Z,97.50
2018-11-13T11:18:23.873Z,97.40
2018-11-13T11:20:53.030Z,96.60
2018-11-13T11:23:22.245Z,95.50
2018-11-13T11:25:51.411Z,96.00
2018-11-13T11:28:20.600Z,95.60
2018-11-13T11:30:49.741Z,94.10
2018-11-13T11:33:18.831Z,93.00
2018-11-13T11:35:48.071Z,94.20
2018-11-13T11:38:17.183Z,94.30
2018-11-13T11:40:46.247Z,93.50
2018-11-13T11:43:15.474Z,93.60
2018-11-13T11:45:44.552Z,93.60
2018-11-13T11:48:13.712Z,93.10
2018-11-13T11:50:42.903Z,92.30
2018-11-13T11:53:12.065Z,91.90
2018-11-13T11:55:41.181Z,91.40
2018-11-13T11:58:10.283Z,90.80
2018-11-13T12:00:39.557Z,90.40
2018-11-13T12:03:08.709Z,89.70
2018-11-13T12:05:37.876Z,90.60
2018-11-13T12:08:07.058Z,91.00
2018-11-13T12:10:36.221Z,91.50
2018-11-13T12:13:05.505Z,90.50
2018-11-13T12:15:34.668Z,90.60
2018-11-13T12:18:03.814Z,91.10
2018-11-13T12:20:32.903Z,90.50
2018-11-13T12:23:02.119Z,90.10
2018-11-13T12:25:31.267Z,88.60
2018-11-13T12:28:00.494Z,85.30
2018-11-13T12:30:29.663Z,86.80
2018-11-13T12:32:58.843Z,87.00
2018-11-13T12:35:28.005Z,83.00
2018-11-13T12:37:57.105Z,83.30
2018-11-13T12:40:26.398Z,80.40
2018-11-13T12:42:55.502Z,79.90
2018-11-13T12:45:24.571Z,80.00
2018-11-13T12:47:53.786Z,79.40
2018-11-13T12:50:22.950Z,81.70
2018-11-13T12:52:52.066Z,83.30
2018-11-13T12:55:24.045Z,85.00
2018-11-13T12:57:53.144Z,86.20
2018-11-13T13:00:24.027Z,86.90
2018-11-13T13:02:53.336Z,87.00
2018-11-13T13:05:22.552Z,87.40
2018-11-13T13:07:51.661Z,86.70
2018-11-13T13:10:21.568Z,87.90
2018-11-13T13:12:50.673Z,89.90
2018-11-13T13:15:20.363Z,88.90
2018-11-13T13:17:49.602Z,90.00
2018-11-13T13:20:23.144Z,90.00
2018-11-13T13:22:52.671Z,89.80
2018-11-13T13:25:23.009Z,90.60
2018-11-13T13:27:52.217Z,90.80
2018-11-13T13:30:22.692Z,91.00
2018-11-13T13:32:52.197Z,90.90
2018-11-13T13:35:40.229Z,91.20
2018-11-13T13:38:09.949Z,91.10
2018-11-13T13:40:40.093Z,91.20
2018-11-13T13:43:10.327Z,91.50
2018-11-13T13:45:40.346Z,91.40
2018-11-13T13:48:09.532Z,91.50
2018-11-13T13:50:39.108Z,91.60
2018-11-13T13:53:09.291Z,91.40
2018-11-13T13:55:38.487Z,91.50
2018-11-13T13:58:07.726Z,91.40
2018-11-13T14:00:37.359Z,91.00
2018-11-13T14:03:07.855Z,90.80
2018-11-13T14:05:37.115Z,90.70
2018-11-13T14:08:06.940Z,90.50
2018-11-13T14:10:36.107Z,90.40
2018-11-13T14:13:05.376Z,90.30
2018-11-13T14:15:34.692Z,90.30
2018-11-13T14:18:03.784Z,90.30
2018-11-13T14:20:32.883Z,90.20
2018-11-13T14:23:02.083Z,90.30
2018-11-13T14:25:31.394Z,90.00
2018-11-13T14:28:00.684Z,90.30
2018-11-13T14:30:31.063Z,90.20
2018-11-13T14:33:01.661Z,90.20
2018-11-13T14:35:30.917Z,90.30
2018-11-13T14:38:00.495Z,90.50
2018-11-13T14:40:40.634Z,90.50
2018-11-13T14:43:10.152Z,90.40
2018-11-13T14:45:39.292Z,90.50
2018-11-13T14:48:09.189Z,90.50
2018-11-13T14:50:38.736Z,90.70
2018-11-13T14:53:08.636Z,90.80
2018-11-13T14:55:39.092Z,91.00
2018-11-13T14:58:09.462Z,91.30
2018-11-13T15:00:39.130Z,91.40
2018-11-13T15:03:09.916Z,91.70
2018-11-13T15:05:43.921Z,91.90
2018-11-13T15:08:13.436Z,92.00
2018-11-13T15:10:51.702Z,92.10
2018-11-13T15:13:21.759Z,92.20
2018-11-13T15:15:50.924Z,92.50
2018-11-13T15:18:20.175Z,92.50
2018-11-13T15:20:50.214Z,92.80
2018-11-13T15:23:19.428Z,92.90
2018-11-13T15:25:48.546Z,93.10
2018-11-13T15:28:17.749Z,93.10
2018-11-13T15:30:48.344Z,93.40
2018-11-13T15:33:20.851Z,93.40
2018-11-13T15:35:50.002Z,93.40
2018-11-13T15:38:19.320Z,93.40
2018-11-13T15:40:48.484Z,93.70
2018-11-13T15:43:17.671Z,93.90
2018-11-13T15:45:46.808Z,93.70
2018-11-13T15:48:16.417Z,93.90
2018-11-13T15:50:45.568Z,93.80
2018-11-13T15:53:14.661Z,93.90
2018-11-13T15:55:43.959Z,94.40
2018-11-13T15:58:13.160Z,94.00
2018-11-13T16:00:43.034Z,94.10
2018-11-13T16:03:17.051Z,93.90
2018-11-13T16:05:48.362Z,93.90
2018-11-13T16:08:17.594Z,93.70
2018-11-13T16:10:46.803Z,93.60
2018-11-13T16:13:15.979Z,93.40
2018-11-13T16:15:45.606Z,93.50
2018-11-13T16:18:16.226Z,93.80
2018-11-13T16:20:45.397Z,93.50
2018-11-13T16:23:14.635Z,93.50
2018-11-13T16:25:43.800Z,93.70
2018-11-13T16:28:13.096Z,94.00
2018-11-13T16:30:42.409Z,93.90
2018-11-13T16:33:11.534Z,94.10
2018-11-13T16:35:40.672Z,94.00
2018-11-13T16:38:11.172Z,94.10
2018-11-13T16:40:41.130Z,94.30
2018-11-13T16:43:09.553Z,94.10
2018-11-13T16:45:38.772Z,94.10
2018-11-13T16:48:08.152Z,94.20
2018-11-13T16:50:38.595Z,94.20
2018-11-13T16:53:07.948Z,94.30
2018-11-13T16:55:42.205Z,94.30
2018-11-13T16:58:12.837Z,94.40
2018-11-13T17:00:42.038Z,94.60
2018-11-13T17:03:11.177Z,94.80
2018-11-13T17:05:40.615Z,95.00
2018-11-13T17:08:09.729Z,95.20
2018-11-13T17:10:40.775Z,95.30
2018-11-13T17:13:10.114Z,95.60
2018-11-13T17:15:39.428Z,95.70
2018-11-13T17:18:08.737Z,95.80
2018-11-13T17:20:37.978Z,95.70
2018-11-13T17:23:07.243Z,95.80
2018-11-13T17:25:37.943Z,95.50
2018-11-13T17:28:07.680Z,95.40
2018-11-13T17:30:37.165Z,95.20
2018-11-13T17:33:07.938Z,95.20
2018-11-13T17:35:37.199Z,95.40
2018-11-13T17:38:07.034Z,94.90
2018-11-13T17:40:36.932Z,94.70
2018-11-13T17:43:07.211Z,94.70
2018-11-13T17:45:37.764Z,94.40
2018-11-13T17:48:08.228Z,94.90
2018-11-13T17:50:38.521Z,94.80
2018-11-13T17:53:08.599Z,94.60
2018-11-13T17:55:37.832Z,93.50
2018-11-13T17:58:10.383Z,93.70
2018-11-13T18:00:40.898Z,93.10
2018-11-13T18:03:12.538Z,93.00
2018-11-13T18:05:42.243Z,92.80
2018-11-13T18:08:12.034Z,92.70
2018-11-13T18:10:42.321Z,92.90
2018-11-13T18:13:11.595Z,92.80
2018-11-13T18:15:40.781Z,92.80
2018-11-13T18:18:10.741Z,92.90
2018-11-13T18:20:40.919Z,92.90
2018-11-13T18:23:10.558Z,93.10
2018-11-13T18:25:39.711Z,93.60
2018-11-13T18:28:09.247Z,93.50
2018-11-13T18:30:38.911Z,93.80
2018-11-13T18:33:08.643Z,93.90
2018-11-13T18:35:38.838Z,93.90
2018-11-13T18:38:09.620Z,94.20
2018-11-13T18:40:38.898Z,94.20
2018-11-13T18:43:08.239Z,94.20
2018-11-13T18:45:38.910Z,94.30
2018-11-13T18:48:08.163Z,94.50
2018-11-13T18:50:45.257Z,94.60
2018-11-13T18:53:14.605Z,95.00
2018-11-13T18:55:43.857Z,95.00
2018-11-13T18:58:13.108Z,95.10
2018-11-13T19:00:42.719Z,94.90
2018-11-13T19:03:13.013Z,94.90
2018-11-13T19:05:42.304Z,94.90
2018-11-13T19:08:11.639Z,95.00
2018-11-13T19:10:47.494Z,94.70
2018-11-13T19:13:18.623Z,94.20
2018-11-13T19:15:50.884Z,94.20
2018-11-13T19:18:20.982Z,93.90
2018-11-13T19:20:50.641Z,93.80
2018-11-13T19:23:20.647Z,94.00
2018-11-13T19:25:50.424Z,94.20
2018-11-13T19:28:19.869Z,94.20
2018-11-13T19:30:49.564Z,94.30
2018-11-13T19:33:19.247Z,94.50
2018-11-13T19:35:48.921Z,94.60
2018-11-13T19:38:18.459Z,94.80
2018-11-13T19:40:48.684Z,94.90
2018-11-13T19:43:18.364Z,95.00
2018-11-13T19:45:47.957Z,94.90
2018-11-13T19:48:17.428Z,95.00
2018-11-13T19:50:46.975Z,95.00
2018-11-13T19:53:16.530Z,95.00
2018-11-13T19:55:46.089Z,94.90
2018-11-13T19:58:15.663Z,94.90
2018-11-13T20:00:45.212Z,94.90
2018-11-13T20:03:14.837Z,94.80
2018-11-13T20:05:45.351Z,94.90
2018-11-13T20:08:14.927Z,95.00
2018-11-13T20:10:44.498Z,95.10
2018-11-13T20:13:14.068Z,95.20
2018-11-13T20:15:43.606Z,95.30
2018-11-13T20:18:13.243Z,95.50
2018-11-13T20:20:43.808Z,95.70
2018-11-13T20:23:13.475Z,95.70
2018-11-13T20:25:43.091Z,95.40
2018-11-13T20:28:12.726Z,95.40
2018-11-13T20:30:43.328Z,95.00
2018-11-13T20:33:13.104Z,94.90
2018-11-13T20:35:42.738Z,94.80
2018-11-13T20:38:12.448Z,94.30
2018-11-13T20:40:42.034Z,94.30
2018-11-13T20:43:12.567Z,94.10
2018-11-13T20:45:41.994Z,93.90
2018-11-13T20:48:11.337Z,93.30
2018-11-13T20:50:40.861Z,93.20
2018-11-13T20:53:10.057Z,92.50
2018-11-13T20:55:39.309Z,92.30
2018-11-13T20:58:08.631Z,92.20
2018-11-13T21:00:38.152Z,91.50
2018-11-13T21:03:07.910Z,91.40
2018-11-13T21:05:37.128Z,91.40
2018-11-13T21:08:06.587Z,91.40
2018-11-13T21:10:37.459Z,91.40
2018-11-13T21:13:07.225Z,91.40
2018-11-13T21:15:36.456Z,91.40
2018-11-13T21:18:05.876Z,91.30
2018-11-13T21:20:35.069Z,91.60
2018-11-13T21:23:04.335Z,91.60
2018-11-13T21:25:33.500Z,91.90
2018-11-13T21:28:03.149Z,91.90
2018-11-13T21:30:32.353Z,91.80
2018-11-13T21:33:02.096Z,91.90
2018-11-13T21:35:31.305Z,91.90
2018-11-13T21:38:00.431Z,91.80
2018-11-13T21:40:29.711Z,92.00
2018-11-13T21:42:59.084Z,92.30
2018-11-13T21:45:29.132Z,92.50
2018-11-13T21:47:58.297Z,92.60
2018-11-13T21:50:28.763Z,92.70
2018-11-13T21:52:57.923Z,92.60
2018-11-13T21:55:28.134Z,92.60
2018-11-13T21:57:57.283Z,92.60
2018-11-13T22:00:30.164Z,92.70
2018-11-13T22:03:02.469Z,93.30
2018-11-13T22:05:32.330Z,93.50
2018-11-13T22:08:01.511Z,93.80
2018-11-13T22:10:30.671Z,94.00
2018-11-13T22:12:59.804Z,94.30
2018-11-13T22:15:29.770Z,94.80
2018-11-13T22:17:58.992Z,94.80
2018-11-13T22:20:28.084Z,94.90
2018-11-13T22:22:58.365Z,94.90
2018-11-13T22:25:27.793Z,95.10
2018-11-13T22:27:58.126Z,95.10
2018-11-13T22:30:29.334Z,95.00
2018-11-13T22:32:58.407Z,94.90
2018-11-13T22:35:27.558Z,94.70
2018-11-13T22:37:56.816Z,94.60
2018-11-13T22:40:27.361Z,94.50
2018-11-13T22:42:57.010Z,94.60
2018-11-13T22:45:27.405Z,94.80
2018-11-13T22:47:57.021Z,94.80
2018-11-13T22:50:32.834Z,94.90
2018-11-13T22:53:02.091Z,94.90
2018-11-13T22:55:31.254Z,95.20
2018-11-13T22:58:01.347Z,96.40
2018-11-13T23:00:42.843Z,96.30
2018-11-13T23:03:13.538Z,96.40
2018-11-13T23:05:43.426Z,96.10
2018-11-13T23:08:14.044Z,96.10
2018-11-13T23:10:43.357Z,96.10
2018-11-13T23:13:12.527Z,96.00
2018-11-13T23:15:41.727Z,95.90
2018-11-13T23:18:10.999Z,96.00
2018-11-13T23:20:40.129Z,96.00
2018-11-13T23:23:09.273Z,96.10
2018-11-13T23:25:38.392Z,96.20
2018-11-13T23:28:07.582Z,96.10
2018-11-13T23:30:36.749Z,96.30
2018-11-13T23:33:06.279Z,96.40
2018-11-13T23:35:35.207Z,96.40
2018-11-13T23:38:04.331Z,96.50
2018-11-13T23:40:33.579Z,96.40
2018-11-13T23:43:02.720Z,96.40
2018-11-13T23:45:31.972Z,96.30
2018-11-13T23:48:01.387Z,96.10
2018-11-13T23:50:30.299Z,96.00
2018-11-13T23:52:59.426Z,95.80
2018-11-13T23:55:28.518Z,95.70
2018-11-13T23:57:57.632Z,95.30
